sensor_id;sensor_type;location;lat;lon;timestamp;temperature;humidity
6581;DHT22;3324;50.796;7.228;2022-11-20T00:02:24;4.40;99.90
6581;DHT22;3324;50.796;7.228;2022-11-20T00:04:50;4.50;99.90
6581;DHT22;3324;50.796;7.228;2022-11-20T00:07:15;4.40;99.90
6581;DHT22;3324;50.796;7.228;2022-11-20T00:09:41;4.50;99.90
6581;DHT22;3324;50.796;7.228;2022-11-20T00:12:06;4.50;99.90
6581;DHT22;3324;50.796;7.228;2022-11-20T00:14:32;4.50;99.90
6581;DHT22;3324;50.796;7.228;2022-11-20T00:16:58;4.50;99.90
6581;DHT22;3324;50.796;7.228;2022-11-20T00:19:23;4.50;99.90
6581;DHT22;3324;50.796;7.228;2022-11-20T00:21:49;4.50;99.90
6581;DHT22;3324;50.796;7.228;2022-11-20T00:24:17;4.50;99.90
6581;DHT22;3324;50.796;7.228;2022-11-20T00:26:42;4.50;99.90
6581;DHT22;3324;50.796;7.228;2022-11-20T00:29:09;4.50;99.90
6581;DHT22;3324;50.796;7.228;2022-11-20T00:31:35;4.50;99.90
6581;DHT22;3324;50.796;7.228;2022-11-20T00:34:01;4.50;99.90
6581;DHT22;3324;50.796;7.228;2022-11-20T00:36:28;4.50;99.90
6581;DHT22;3324;50.796;7.228;2022-11-20T00:38:55;4.50;99.90
6581;DHT22;3324;50.796;7.228;2022-11-20T00:41:22;4.50;99.90
6581;DHT22;3324;50.796;7.228;2022-11-20T00:43:48;4.40;99.90
6581;DHT22;3324;50.796;7.228;2022-11-20T00:46:19;4.40;99.90
6581;DHT22;3324;50.796;7.228;2022-11-20T00:48:45;4.40;99.90
6581;DHT22;3324;50.796;7.228;2022-11-20T00:51:16;4.40;99.90
6581;DHT22;3324;50.796;7.228;2022-11-20T00:53:42;4.40;99.90
6581;DHT22;3324;50.796;7.228;2022-11-20T00:56:13;4.40;99.90
6581;DHT22;3324;50.796;7.228;2022-11-20T00:58:41;4.50;99.90
6581;DHT22;3324;50.796;7.228;2022-11-20T01:01:12;4.40;99.90
6581;DHT22;3324;50.796;7.228;2022-11-20T01:03:40;4.40;99.90
6581;DHT22;3324;50.796;7.228;2022-11-20T01:06:12;4.40;99.90
6581;DHT22;3324;50.796;7.228;2022-11-20T01:08:38;4.40;99.90
6581;DHT22;3324;50.796;7.228;2022-11-20T01:11:10;4.40;99.90
6581;DHT22;3324;50.796;7.228;2022-11-20T01:13:36;4.40;99.90
6581;DHT22;3324;50.796;7.228;2022-11-20T01:16:11;4.40;99.90
6581;DHT22;3324;50.796;7.228;2022-11-20T01:18:39;4.40;99.90
6581;DHT22;3324;50.796;7.228;2022-11-20T01:21:14;4.40;99.90
6581;DHT22;3324;50.796;7.228;2022-11-20T01:23:41;4.40;99.90
6581;DHT22;3324;50.796;7.228;2022-11-20T01:26:12;4.40;99.90
6581;DHT22;3324;50.796;7.228;2022-11-20T01:28:39;4.40;99.90
6581;DHT22;3324;50.796;7.228;2022-11-20T01:33:39;4.40;99.90
6581;DHT22;3324;50.796;7.228;2022-11-20T01:36:06;4.40;99.90
6581;DHT22;3324;50.796;7.228;2022-11-20T01:38:32;4.30;99.90
6581;DHT22;3324;50.796;7.228;2022-11-20T01:40:58;4.30;99.90
6581;DHT22;3324;50.796;7.228;2022-11-20T01:43:24;4.30;99.90
6581;DHT22;3324;50.796;7.228;2022-11-20T01:48:29;4.20;99.90
6581;DHT22;3324;50.796;7.228;2022-11-20T01:50:57;4.20;99.90
6581;DHT22;3324;50.796;7.228;2022-11-20T01:53:27;4.30;99.90
6581;DHT22;3324;50.796;7.228;2022-11-20T01:55:56;4.30;99.90
6581;DHT22;3324;50.796;7.228;2022-11-20T01:58:30;4.40;99.90
6581;DHT22;3324;50.796;7.228;2022-11-20T02:00:57;4.40;99.90
6581;DHT22;3324;50.796;7.228;2022-11-20T02:03:23;4.40;99.90
6581;DHT22;3324;50.796;7.228;2022-11-20T02:06:12;4.40;99.90
6581;DHT22;3324;50.796;7.228;2022-11-20T02:08:39;4.50;99.90
6581;DHT22;3324;50.796;7.228;2022-11-20T02:11:05;4.50;99.90
6581;DHT22;3324;50.796;7.228;2022-11-20T02:13:31;4.50;99.90
6581;DHT22;3324;50.796;7.228;2022-11-20T02:16:19;4.50;99.90
6581;DHT22;3324;50.796;7.228;2022-11-20T02:18:46;4.60;99.90
6581;DHT22;3324;50.796;7.228;2022-11-20T02:21:30;4.60;99.90
6581;DHT22;3324;50.796;7.228;2022-11-20T02:24:09;4.60;99.90
6581;DHT22;3324;50.796;7.228;2022-11-20T02:26:59;4.60;99.90
6581;DHT22;3324;50.796;7.228;2022-11-20T02:31:58;4.60;99.90
6581;DHT22;3324;50.796;7.228;2022-11-20T02:34:24;4.60;99.90
6581;DHT22;3324;50.796;7.228;2022-11-20T02:36:52;4.60;99.90
6581;DHT22;3324;50.796;7.228;2022-11-20T02:39:19;4.60;99.90
6581;DHT22;3324;50.796;7.228;2022-11-20T02:41:45;4.70;99.90
6581;DHT22;3324;50.796;7.228;2022-11-20T02:44:11;4.60;99.90
6581;DHT22;3324;50.796;7.228;2022-11-20T02:46:37;4.60;99.90
6581;DHT22;3324;50.796;7.228;2022-11-20T02:49:03;4.50;99.90
6581;DHT22;3324;50.796;7.228;2022-11-20T02:51:29;4.50;99.90
6581;DHT22;3324;50.796;7.228;2022-11-20T02:53:55;4.50;99.90
6581;DHT22;3324;50.796;7.228;2022-11-20T02:56:21;4.50;99.90
6581;DHT22;3324;50.796;7.228;2022-11-20T02:58:47;4.40;99.90
6581;DHT22;3324;50.796;7.228;2022-11-20T03:01:12;4.40;99.90
6581;DHT22;3324;50.796;7.228;2022-11-20T03:03:38;4.40;99.90
6581;DHT22;3324;50.796;7.228;2022-11-20T03:06:04;4.40;99.90
6581;DHT22;3324;50.796;7.228;2022-11-20T03:08:29;4.30;99.90
6581;DHT22;3324;50.796;7.228;2022-11-20T03:10:55;4.30;99.90
6581;DHT22;3324;50.796;7.228;2022-11-20T03:13:21;4.20;99.90
6581;DHT22;3324;50.796;7.228;2022-11-20T03:15:46;4.20;99.90
6581;DHT22;3324;50.796;7.228;2022-11-20T03:18:12;4.20;99.90
6581;DHT22;3324;50.796;7.228;2022-11-20T03:20:39;4.10;99.90
6581;DHT22;3324;50.796;7.228;2022-11-20T03:23:05;4.10;99.90
6581;DHT22;3324;50.796;7.228;2022-11-20T03:25:30;4.20;99.90
6581;DHT22;3324;50.796;7.228;2022-11-20T03:27:56;4.20;99.90
6581;DHT22;3324;50.796;7.228;2022-11-20T03:30:21;4.20;99.90
6581;DHT22;3324;50.796;7.228;2022-11-20T03:32:47;4.30;99.90
6581;DHT22;3324;50.796;7.228;2022-11-20T03:35:13;4.40;99.90
6581;DHT22;3324;50.796;7.228;2022-11-20T03:37:38;4.40;99.90
6581;DHT22;3324;50.796;7.228;2022-11-20T03:40:05;4.40;99.90
6581;DHT22;3324;50.796;7.228;2022-11-20T03:42:30;4.40;99.90
6581;DHT22;3324;50.796;7.228;2022-11-20T03:45:15;4.60;99.90
6581;DHT22;3324;50.796;7.228;2022-11-20T03:47:41;4.50;99.90
6581;DHT22;3324;50.796;7.228;2022-11-20T03:50:08;4.50;99.90
6581;DHT22;3324;50.796;7.228;2022-11-20T03:52:34;4.80;99.90
6581;DHT22;3324;50.796;7.228;2022-11-20T03:54:59;4.70;99.90
6581;DHT22;3324;50.796;7.228;2022-11-20T03:57:25;4.80;99.90
6581;DHT22;3324;50.796;7.228;2022-11-20T03:59:51;4.70;99.90
6581;DHT22;3324;50.796;7.228;2022-11-20T04:02:16;4.60;99.90
6581;DHT22;3324;50.796;7.228;2022-11-20T04:04:42;4.60;99.90
6581;DHT22;3324;50.796;7.228;2022-11-20T04:07:07;4.70;99.90
6581;DHT22;3324;50.796;7.228;2022-11-20T04:09:33;4.60;99.90
6581;DHT22;3324;50.796;7.228;2022-11-20T04:11:58;4.60;99.90
6581;DHT22;3324;50.796;7.228;2022-11-20T04:14:24;4.60;99.90
6581;DHT22;3324;50.796;7.228;2022-11-20T04:16:49;4.60;99.90
6581;DHT22;3324;50.796;7.228;2022-11-20T04:19:16;4.60;99.90
6581;DHT22;3324;50.796;7.228;2022-11-20T04:21:43;4.50;99.90
6581;DHT22;3324;50.796;7.228;2022-11-20T04:24:09;4.50;99.90
6581;DHT22;3324;50.796;7.228;2022-11-20T04:26:36;4.50;99.90
6581;DHT22;3324;50.796;7.228;2022-11-20T04:29:02;4.60;99.90
6581;DHT22;3324;50.796;7.228;2022-11-20T04:31:30;4.60;99.90
6581;DHT22;3324;50.796;7.228;2022-11-20T04:33:58;4.60;99.90
6581;DHT22;3324;50.796;7.228;2022-11-20T04:36:26;4.60;99.90
6581;DHT22;3324;50.796;7.228;2022-11-20T04:38:59;4.60;99.90
6581;DHT22;3324;50.796;7.228;2022-11-20T04:41:27;4.50;99.90
6581;DHT22;3324;50.796;7.228;2022-11-20T04:43:55;4.50;99.90
6581;DHT22;3324;50.796;7.228;2022-11-20T04:46:30;4.50;99.90
6581;DHT22;3324;50.796;7.228;2022-11-20T04:48:58;4.60;99.90
6581;DHT22;3324;50.796;7.228;2022-11-20T04:51:24;4.50;99.90
6581;DHT22;3324;50.796;7.228;2022-11-20T04:53:49;4.50;99.90
6581;DHT22;3324;50.796;7.228;2022-11-20T04:56:15;4.50;99.90
6581;DHT22;3324;50.796;7.228;2022-11-20T04:58:41;4.50;99.90
6581;DHT22;3324;50.796;7.228;2022-11-20T05:01:14;4.50;99.90
6581;DHT22;3324;50.796;7.228;2022-11-20T05:03:41;4.50;99.90
6581;DHT22;3324;50.796;7.228;2022-11-20T05:06:08;4.50;99.90
6581;DHT22;3324;50.796;7.228;2022-11-20T05:08:34;4.40;99.90
6581;DHT22;3324;50.796;7.228;2022-11-20T05:11:08;4.50;99.90
6581;DHT22;3324;50.796;7.228;2022-11-20T05:13:34;4.50;99.90
6581;DHT22;3324;50.796;7.228;2022-11-20T05:16:08;4.50;99.90
6581;DHT22;3324;50.796;7.228;2022-11-20T05:18:34;4.50;99.90
6581;DHT22;3324;50.796;7.228;2022-11-20T05:21:00;4.50;99.90
6581;DHT22;3324;50.796;7.228;2022-11-20T05:23:26;4.50;99.90
6581;DHT22;3324;50.796;7.228;2022-11-20T05:25:53;4.50;99.90
6581;DHT22;3324;50.796;7.228;2022-11-20T05:28:19;4.40;99.90
6581;DHT22;3324;50.796;7.228;2022-11-20T05:30:45;4.50;99.90
6581;DHT22;3324;50.796;7.228;2022-11-20T05:33:11;4.50;99.90
6581;DHT22;3324;50.796;7.228;2022-11-20T05:35:36;4.50;99.90
6581;DHT22;3324;50.796;7.228;2022-11-20T05:38:02;4.50;99.90
6581;DHT22;3324;50.796;7.228;2022-11-20T05:40:27;4.50;99.90
6581;DHT22;3324;50.796;7.228;2022-11-20T05:42:53;4.60;99.90
6581;DHT22;3324;50.796;7.228;2022-11-20T05:45:18;4.60;99.90
6581;DHT22;3324;50.796;7.228;2022-11-20T05:47:44;4.60;99.90
6581;DHT22;3324;50.796;7.228;2022-11-20T05:50:09;4.60;99.90
6581;DHT22;3324;50.796;7.228;2022-11-20T05:52:35;4.60;99.90
6581;DHT22;3324;50.796;7.228;2022-11-20T05:55:01;4.60;99.90
6581;DHT22;3324;50.796;7.228;2022-11-20T05:57:26;4.60;99.90
6581;DHT22;3324;50.796;7.228;2022-11-20T05:59:52;4.70;99.90
6581;DHT22;3324;50.796;7.228;2022-11-20T06:02:18;4.70;99.90
6581;DHT22;3324;50.796;7.228;2022-11-20T06:04:43;4.70;99.90
6581;DHT22;3324;50.796;7.228;2022-11-20T06:07:09;4.70;99.90
6581;DHT22;3324;50.796;7.228;2022-11-20T06:09:34;4.70;99.90
6581;DHT22;3324;50.796;7.228;2022-11-20T06:12:00;4.70;99.90
6581;DHT22;3324;50.796;7.228;2022-11-20T06:14:26;4.70;99.90
6581;DHT22;3324;50.796;7.228;2022-11-20T06:16:51;4.70;99.90
6581;DHT22;3324;50.796;7.228;2022-11-20T06:19:17;4.70;99.90
6581;DHT22;3324;50.796;7.228;2022-11-20T06:21:42;4.70;99.90
6581;DHT22;3324;50.796;7.228;2022-11-20T06:24:11;4.60;99.90
6581;DHT22;3324;50.796;7.228;2022-11-20T06:26:37;4.70;99.90
6581;DHT22;3324;50.796;7.228;2022-11-20T06:29:02;4.60;99.90
6581;DHT22;3324;50.796;7.228;2022-11-20T06:31:28;4.60;99.90
6581;DHT22;3324;50.796;7.228;2022-11-20T06:33:54;4.60;99.90
6581;DHT22;3324;50.796;7.228;2022-11-20T06:36:21;4.60;99.90
6581;DHT22;3324;50.796;7.228;2022-11-20T06:38:48;4.60;99.90
6581;DHT22;3324;50.796;7.228;2022-11-20T06:41:16;4.60;99.90
6581;DHT22;3324;50.796;7.228;2022-11-20T06:43:42;4.60;99.90
6581;DHT22;3324;50.796;7.228;2022-11-20T06:46:09;4.60;99.90
6581;DHT22;3324;50.796;7.228;2022-11-20T06:48:36;4.60;99.90
6581;DHT22;3324;50.796;7.228;2022-11-20T06:51:06;4.60;99.90
6581;DHT22;3324;50.796;7.228;2022-11-20T06:53:32;4.70;99.90
6581;DHT22;3324;50.796;7.228;2022-11-20T06:55:57;4.60;99.90
6581;DHT22;3324;50.796;7.228;2022-11-20T06:58:25;4.70;99.90
6581;DHT22;3324;50.796;7.228;2022-11-20T07:00:51;4.70;99.90
6581;DHT22;3324;50.796;7.228;2022-11-20T07:03:17;4.80;99.90
6581;DHT22;3324;50.796;7.228;2022-11-20T07:05:42;4.80;99.90
6581;DHT22;3324;50.796;7.228;2022-11-20T07:08:09;4.80;99.90
6581;DHT22;3324;50.796;7.228;2022-11-20T07:10:35;4.90;99.90
6581;DHT22;3324;50.796;7.228;2022-11-20T07:13:01;4.90;99.90
6581;DHT22;3324;50.796;7.228;2022-11-20T07:15:26;4.90;99.90
6581;DHT22;3324;50.796;7.228;2022-11-20T07:17:52;4.80;99.90
6581;DHT22;3324;50.796;7.228;2022-11-20T07:20:18;4.80;99.90
6581;DHT22;3324;50.796;7.228;2022-11-20T07:22:43;4.90;99.90
6581;DHT22;3324;50.796;7.228;2022-11-20T07:25:09;4.90;99.90
6581;DHT22;3324;50.796;7.228;2022-11-20T07:27:35;4.90;99.90
6581;DHT22;3324;50.796;7.228;2022-11-20T07:30:02;4.90;99.90
6581;DHT22;3324;50.796;7.228;2022-11-20T07:32:28;4.90;99.90
6581;DHT22;3324;50.796;7.228;2022-11-20T07:34:54;4.90;99.90
6581;DHT22;3324;50.796;7.228;2022-11-20T07:37:19;5.00;99.90
6581;DHT22;3324;50.796;7.228;2022-11-20T07:39:45;5.00;99.90
6581;DHT22;3324;50.796;7.228;2022-11-20T07:42:10;5.00;99.90
6581;DHT22;3324;50.796;7.228;2022-11-20T07:44:37;5.00;99.90
6581;DHT22;3324;50.796;7.228;2022-11-20T07:47:03;5.00;99.90
6581;DHT22;3324;50.796;7.228;2022-11-20T07:49:29;5.10;99.90
6581;DHT22;3324;50.796;7.228;2022-11-20T07:51:55;5.10;99.90
6581;DHT22;3324;50.796;7.228;2022-11-20T07:54:21;5.10;99.90
6581;DHT22;3324;50.796;7.228;2022-11-20T07:56:47;5.10;99.90
6581;DHT22;3324;50.796;7.228;2022-11-20T07:59:13;5.20;99.90
6581;DHT22;3324;50.796;7.228;2022-11-20T08:01:39;5.20;99.90
6581;DHT22;3324;50.796;7.228;2022-11-20T08:04:05;5.30;99.90
6581;DHT22;3324;50.796;7.228;2022-11-20T08:06:31;5.30;99.90
6581;DHT22;3324;50.796;7.228;2022-11-20T08:08:57;5.30;99.90
6581;DHT22;3324;50.796;7.228;2022-11-20T08:11:22;5.40;99.90
6581;DHT22;3324;50.796;7.228;2022-11-20T08:14:07;5.30;99.90
6581;DHT22;3324;50.796;7.228;2022-11-20T08:16:40;5.30;99.90
6581;DHT22;3324;50.796;7.228;2022-11-20T08:19:06;5.30;99.90
6581;DHT22;3324;50.796;7.228;2022-11-20T08:21:32;5.30;99.90
6581;DHT22;3324;50.796;7.228;2022-11-20T08:23:58;5.30;99.90
6581;DHT22;3324;50.796;7.228;2022-11-20T08:26:24;5.30;99.90
6581;DHT22;3324;50.796;7.228;2022-11-20T08:28:53;5.30;99.90
6581;DHT22;3324;50.796;7.228;2022-11-20T08:31:20;5.50;99.90
6581;DHT22;3324;50.796;7.228;2022-11-20T08:33:46;5.50;99.90
6581;DHT22;3324;50.796;7.228;2022-11-20T08:36:11;5.50;99.90
6581;DHT22;3324;50.796;7.228;2022-11-20T08:38:37;5.60;99.90
6581;DHT22;3324;50.796;7.228;2022-11-20T08:41:04;5.50;99.90
6581;DHT22;3324;50.796;7.228;2022-11-20T08:43:49;5.50;99.90
6581;DHT22;3324;50.796;7.228;2022-11-20T08:46:15;5.60;99.90
6581;DHT22;3324;50.796;7.228;2022-11-20T08:48:41;5.50;99.90
6581;DHT22;3324;50.796;7.228;2022-11-20T08:51:06;5.50;99.90
6581;DHT22;3324;50.796;7.228;2022-11-20T08:53:32;5.50;99.90
6581;DHT22;3324;50.796;7.228;2022-11-20T08:55:58;5.50;99.90
6581;DHT22;3324;50.796;7.228;2022-11-20T08:58:24;5.40;99.90
6581;DHT22;3324;50.796;7.228;2022-11-20T09:00:50;5.50;99.90
6581;DHT22;3324;50.796;7.228;2022-11-20T09:03:15;5.40;99.90
6581;DHT22;3324;50.796;7.228;2022-11-20T09:05:41;5.50;99.90
6581;DHT22;3324;50.796;7.228;2022-11-20T09:08:08;5.50;99.90
6581;DHT22;3324;50.796;7.228;2022-11-20T09:10:34;5.50;99.90
6581;DHT22;3324;50.796;7.228;2022-11-20T09:12:59;5.50;99.90
6581;DHT22;3324;50.796;7.228;2022-11-20T09:15:25;5.50;99.90
6581;DHT22;3324;50.796;7.228;2022-11-20T09:17:55;5.50;99.90
6581;DHT22;3324;50.796;7.228;2022-11-20T09:20:21;5.60;99.90
6581;DHT22;3324;50.796;7.228;2022-11-20T09:22:47;5.70;99.90
6581;DHT22;3324;50.796;7.228;2022-11-20T09:25:13;5.80;99.90
6581;DHT22;3324;50.796;7.228;2022-11-20T09:27:39;5.80;99.90
6581;DHT22;3324;50.796;7.228;2022-11-20T09:30:07;5.80;99.90
6581;DHT22;3324;50.796;7.228;2022-11-20T09:32:32;5.80;99.90
6581;DHT22;3324;50.796;7.228;2022-11-20T09:34:59;5.80;99.90
6581;DHT22;3324;50.796;7.228;2022-11-20T09:37:24;5.80;99.90
6581;DHT22;3324;50.796;7.228;2022-11-20T09:39:50;5.80;99.90
6581;DHT22;3324;50.796;7.228;2022-11-20T09:47:52;5.90;99.90
6581;DHT22;3324;50.796;7.228;2022-11-20T09:50:50;5.90;99.90
6581;DHT22;3324;50.796;7.228;2022-11-20T09:56:21;6.00;99.90
6581;DHT22;3324;50.796;7.228;2022-11-20T09:58:52;6.10;99.90
6581;DHT22;3324;50.796;7.228;2022-11-20T10:01:26;6.10;99.90
6581;DHT22;3324;50.796;7.228;2022-11-20T10:09:33;6.20;99.90
6581;DHT22;3324;50.796;7.228;2022-11-20T10:15:52;6.20;99.90
6581;DHT22;3324;50.796;7.228;2022-11-20T10:18:21;6.20;99.90
6581;DHT22;3324;50.796;7.228;2022-11-20T10:21:08;6.40;99.90
6581;DHT22;3324;50.796;7.228;2022-11-20T10:26:50;6.40;99.90
6581;DHT22;3324;50.796;7.228;2022-11-20T10:29:12;6.60;99.90
6581;DHT22;3324;50.796;7.228;2022-11-20T10:31:51;6.60;99.90
6581;DHT22;3324;50.796;7.228;2022-11-20T10:37:00;6.70;99.90
6581;DHT22;3324;50.796;7.228;2022-11-20T10:42:40;6.80;99.90
6581;DHT22;3324;50.796;7.228;2022-11-20T10:47:45;6.90;99.90
6581;DHT22;3324;50.796;7.228;2022-11-20T10:50:14;7.60;99.90
6581;DHT22;3324;50.796;7.228;2022-11-20T10:53:05;8.00;99.90
6581;DHT22;3324;50.796;7.228;2022-11-20T10:55:53;8.70;99.90
6581;DHT22;3324;50.796;7.228;2022-11-20T11:01:05;9.80;99.90
6581;DHT22;3324;50.796;7.228;2022-11-20T11:03:37;9.90;99.90
6581;DHT22;3324;50.796;7.228;2022-11-20T11:06:23;10.10;99.90
6581;DHT22;3324;50.796;7.228;2022-11-20T11:08:53;10.60;99.90
6581;DHT22;3324;50.796;7.228;2022-11-20T11:11:28;10.70;99.90
6581;DHT22;3324;50.796;7.228;2022-11-20T11:14:08;10.60;99.90
6581;DHT22;3324;50.796;7.228;2022-11-20T11:16:34;10.60;99.90
6581;DHT22;3324;50.796;7.228;2022-11-20T11:19:11;10.20;99.90
6581;DHT22;3324;50.796;7.228;2022-11-20T11:21:37;10.20;99.90
6581;DHT22;3324;50.796;7.228;2022-11-20T11:24:25;10.40;99.90
6581;DHT22;3324;50.796;7.228;2022-11-20T11:29:18;10.70;99.90
6581;DHT22;3324;50.796;7.228;2022-11-20T11:31:44;10.60;99.90
6581;DHT22;3324;50.796;7.228;2022-11-20T11:34:17;10.70;99.90
6581;DHT22;3324;50.796;7.228;2022-11-20T11:36:55;11.00;99.90
6581;DHT22;3324;50.796;7.228;2022-11-20T11:39:21;10.90;99.90
6581;DHT22;3324;50.796;7.228;2022-11-20T11:41:47;11.20;99.90
6581;DHT22;3324;50.796;7.228;2022-11-20T11:44:24;11.20;99.90
6581;DHT22;3324;50.796;7.228;2022-11-20T11:47:25;11.10;99.90
6581;DHT22;3324;50.796;7.228;2022-11-20T11:55:38;10.30;99.90
6581;DHT22;3324;50.796;7.228;2022-11-20T12:00:41;9.30;99.90
6581;DHT22;3324;50.796;7.228;2022-11-20T12:03:28;8.90;99.90
6581;DHT22;3324;50.796;7.228;2022-11-20T12:06:01;8.60;99.90
6581;DHT22;3324;50.796;7.228;2022-11-20T12:08:42;8.30;99.90
6581;DHT22;3324;50.796;7.228;2022-11-20T12:11:43;8.10;99.90
6581;DHT22;3324;50.796;7.228;2022-11-20T12:16:54;7.80;99.90
6581;DHT22;3324;50.796;7.228;2022-11-20T12:19:22;7.70;99.90
6581;DHT22;3324;50.796;7.228;2022-11-20T12:25:16;7.50;99.90
6581;DHT22;3324;50.796;7.228;2022-11-20T12:30:19;7.40;99.90
6581;DHT22;3324;50.796;7.228;2022-11-20T12:44:36;7.40;99.90
6581;DHT22;3324;50.796;7.228;2022-11-20T12:53:03;7.40;99.90
6581;DHT22;3324;50.796;7.228;2022-11-20T12:58:20;7.50;99.90
6581;DHT22;3324;50.796;7.228;2022-11-20T13:01:20;7.50;99.90
6581;DHT22;3324;50.796;7.228;2022-11-20T13:04:54;7.50;99.90
6581;DHT22;3324;50.796;7.228;2022-11-20T13:06:54;7.50;99.90
6581;DHT22;3324;50.796;7.228;2022-11-20T13:09:20;7.40;99.90
6581;DHT22;3324;50.796;7.228;2022-11-20T13:14:26;7.40;99.90
6581;DHT22;3324;50.796;7.228;2022-11-20T13:17:20;7.40;99.90
6581;DHT22;3324;50.796;7.228;2022-11-20T13:19:54;7.40;99.90
6581;DHT22;3324;50.796;7.228;2022-11-20T13:22:43;7.30;99.90
6581;DHT22;3324;50.796;7.228;2022-11-20T13:25:21;7.30;99.90
6581;DHT22;3324;50.796;7.228;2022-11-20T13:27:48;7.30;99.90
6581;DHT22;3324;50.796;7.228;2022-11-20T13:30:17;7.20;99.90
6581;DHT22;3324;50.796;7.228;2022-11-20T13:33:06;7.30;99.90
6581;DHT22;3324;50.796;7.228;2022-11-20T13:35:35;7.40;99.90
6581;DHT22;3324;50.796;7.228;2022-11-20T13:38:05;7.30;99.90
6581;DHT22;3324;50.796;7.228;2022-11-20T13:40:31;7.40;99.90
6581;DHT22;3324;50.796;7.228;2022-11-20T13:43:16;7.40;99.90
6581;DHT22;3324;50.796;7.228;2022-11-20T13:45:54;7.40;99.90
6581;DHT22;3324;50.796;7.228;2022-11-20T13:48:22;7.40;99.90
6581;DHT22;3324;50.796;7.228;2022-11-20T13:54:04;7.40;99.90
6581;DHT22;3324;50.796;7.228;2022-11-20T13:57:03;7.40;99.90
6581;DHT22;3324;50.796;7.228;2022-11-20T14:02:16;7.30;99.90
6581;DHT22;3324;50.796;7.228;2022-11-20T14:04:52;7.40;99.90
6581;DHT22;3324;50.796;7.228;2022-11-20T14:07:21;7.40;99.90
6581;DHT22;3324;50.796;7.228;2022-11-20T14:09:57;7.40;99.90
6581;DHT22;3324;50.796;7.228;2022-11-20T14:12:31;7.40;99.90
6581;DHT22;3324;50.796;7.228;2022-11-20T14:14:57;7.40;99.90
6581;DHT22;3324;50.796;7.228;2022-11-20T14:17:29;7.40;99.90
6581;DHT22;3324;50.796;7.228;2022-11-20T14:19:58;7.40;99.90
6581;DHT22;3324;50.796;7.228;2022-11-20T14:22:26;7.40;99.90
6581;DHT22;3324;50.796;7.228;2022-11-20T14:27:28;7.30;99.90
6581;DHT22;3324;50.796;7.228;2022-11-20T14:29:55;7.30;99.90
6581;DHT22;3324;50.796;7.228;2022-11-20T14:32:25;7.30;99.90
6581;DHT22;3324;50.796;7.228;2022-11-20T14:34:53;7.30;99.90
6581;DHT22;3324;50.796;7.228;2022-11-20T14:37:24;7.30;99.90
6581;DHT22;3324;50.796;7.228;2022-11-20T14:39:54;7.30;99.90
6581;DHT22;3324;50.796;7.228;2022-11-20T14:42:23;7.30;99.90
6581;DHT22;3324;50.796;7.228;2022-11-20T14:44:50;7.40;99.90
6581;DHT22;3324;50.796;7.228;2022-11-20T14:47:20;7.40;99.90
6581;DHT22;3324;50.796;7.228;2022-11-20T14:49:49;7.40;99.90
6581;DHT22;3324;50.796;7.228;2022-11-20T14:52:18;7.40;99.90
6581;DHT22;3324;50.796;7.228;2022-11-20T14:54:49;7.40;99.90
6581;DHT22;3324;50.796;7.228;2022-11-20T14:57:33;7.30;99.90
6581;DHT22;3324;50.796;7.228;2022-11-20T15:02:44;7.30;99.90
6581;DHT22;3324;50.796;7.228;2022-11-20T15:05:11;7.30;99.90
6581;DHT22;3324;50.796;7.228;2022-11-20T15:07:39;7.40;99.90
6581;DHT22;3324;50.796;7.228;2022-11-20T15:12:37;7.30;99.90
6581;DHT22;3324;50.796;7.228;2022-11-20T15:15:04;7.30;99.90
6581;DHT22;3324;50.796;7.228;2022-11-20T15:17:32;7.30;99.90
6581;DHT22;3324;50.796;7.228;2022-11-20T15:19:59;7.40;99.90
6581;DHT22;3324;50.796;7.228;2022-11-20T15:22:27;7.30;99.90
6581;DHT22;3324;50.796;7.228;2022-11-20T15:24:52;7.30;99.90
6581;DHT22;3324;50.796;7.228;2022-11-20T15:27:18;7.40;99.90
6581;DHT22;3324;50.796;7.228;2022-11-20T15:29:43;7.40;99.90
6581;DHT22;3324;50.796;7.228;2022-11-20T15:32:09;7.40;99.90
6581;DHT22;3324;50.796;7.228;2022-11-20T15:34:35;7.40;99.90
6581;DHT22;3324;50.796;7.228;2022-11-20T15:37:00;7.60;99.90
6581;DHT22;3324;50.796;7.228;2022-11-20T15:39:26;7.80;99.90
6581;DHT22;3324;50.796;7.228;2022-11-20T15:41:52;7.80;99.90
6581;DHT22;3324;50.796;7.228;2022-11-20T15:44:17;7.70;99.90
6581;DHT22;3324;50.796;7.228;2022-11-20T15:46:43;7.90;99.90
6581;DHT22;3324;50.796;7.228;2022-11-20T15:49:16;7.90;99.90
6581;DHT22;3324;50.796;7.228;2022-11-20T15:51:44;8.00;99.90
6581;DHT22;3324;50.796;7.228;2022-11-20T15:54:12;8.00;99.90
6581;DHT22;3324;50.796;7.228;2022-11-20T15:56:38;8.00;99.90
6581;DHT22;3324;50.796;7.228;2022-11-20T15:59:04;8.00;99.90
6581;DHT22;3324;50.796;7.228;2022-11-20T16:01:29;7.90;99.90
6581;DHT22;3324;50.796;7.228;2022-11-20T16:03:55;7.90;99.90
6581;DHT22;3324;50.796;7.228;2022-11-20T16:06:21;7.80;99.90
6581;DHT22;3324;50.796;7.228;2022-11-20T16:08:47;7.70;99.90
6581;DHT22;3324;50.796;7.228;2022-11-20T16:11:14;7.70;99.90
6581;DHT22;3324;50.796;7.228;2022-11-20T16:13:40;7.70;99.90
6581;DHT22;3324;50.796;7.228;2022-11-20T16:18:54;7.70;99.90
6581;DHT22;3324;50.796;7.228;2022-11-20T16:21:20;7.60;99.90
6581;DHT22;3324;50.796;7.228;2022-11-20T16:23:46;7.60;99.90
6581;DHT22;3324;50.796;7.228;2022-11-20T16:26:13;7.50;99.90
6581;DHT22;3324;50.796;7.228;2022-11-20T16:28:39;7.60;99.90
6581;DHT22;3324;50.796;7.228;2022-11-20T16:31:13;7.50;99.90
6581;DHT22;3324;50.796;7.228;2022-11-20T16:33:39;7.50;99.90
6581;DHT22;3324;50.796;7.228;2022-11-20T16:36:13;7.60;99.90
6581;DHT22;3324;50.796;7.228;2022-11-20T16:38:39;7.60;99.90
6581;DHT22;3324;50.796;7.228;2022-11-20T16:41:06;7.50;99.90
6581;DHT22;3324;50.796;7.228;2022-11-20T16:43:31;7.50;99.90
6581;DHT22;3324;50.796;7.228;2022-11-20T16:45:57;7.40;99.90
6581;DHT22;3324;50.796;7.228;2022-11-20T16:48:23;7.30;99.90
6581;DHT22;3324;50.796;7.228;2022-11-20T16:50:51;7.40;99.90
6581;DHT22;3324;50.796;7.228;2022-11-20T16:53:18;7.30;99.90
6581;DHT22;3324;50.796;7.228;2022-11-20T16:55:44;7.30;99.90
6581;DHT22;3324;50.796;7.228;2022-11-20T16:58:09;7.30;99.90
6581;DHT22;3324;50.796;7.228;2022-11-20T17:00:36;7.30;99.90
6581;DHT22;3324;50.796;7.228;2022-11-20T17:03:04;7.30;99.90
6581;DHT22;3324;50.796;7.228;2022-11-20T17:05:30;7.30;99.90
6581;DHT22;3324;50.796;7.228;2022-11-20T17:07:55;7.30;99.90
6581;DHT22;3324;50.796;7.228;2022-11-20T17:10:21;7.30;99.90
6581;DHT22;3324;50.796;7.228;2022-11-20T17:12:47;7.30;99.90
6581;DHT22;3324;50.796;7.228;2022-11-20T17:15:12;7.30;99.90
6581;DHT22;3324;50.796;7.228;2022-11-20T17:17:38;7.30;99.90
6581;DHT22;3324;50.796;7.228;2022-11-20T17:20:04;7.30;99.90
6581;DHT22;3324;50.796;7.228;2022-11-20T17:22:30;7.30;99.90
6581;DHT22;3324;50.796;7.228;2022-11-20T17:24:56;7.30;99.90
6581;DHT22;3324;50.796;7.228;2022-11-20T17:27:22;7.20;99.90
6581;DHT22;3324;50.796;7.228;2022-11-20T17:29:47;7.20;99.90
6581;DHT22;3324;50.796;7.228;2022-11-20T17:32:13;7.20;99.90
6581;DHT22;3324;50.796;7.228;2022-11-20T17:34:39;7.30;99.90
6581;DHT22;3324;50.796;7.228;2022-11-20T17:37:05;7.20;99.90
6581;DHT22;3324;50.796;7.228;2022-11-20T17:39:31;7.20;99.90
6581;DHT22;3324;50.796;7.228;2022-11-20T17:41:57;7.20;99.90
6581;DHT22;3324;50.796;7.228;2022-11-20T17:44:41;7.20;99.90
6581;DHT22;3324;50.796;7.228;2022-11-20T17:47:07;7.20;99.90
6581;DHT22;3324;50.796;7.228;2022-11-20T17:49:32;7.30;99.90
6581;DHT22;3324;50.796;7.228;2022-11-20T17:51:58;7.30;99.90
6581;DHT22;3324;50.796;7.228;2022-11-20T17:54:24;7.20;99.90
6581;DHT22;3324;50.796;7.228;2022-11-20T17:56:49;7.20;99.90
6581;DHT22;3324;50.796;7.228;2022-11-20T17:59:34;7.20;99.90
6581;DHT22;3324;50.796;7.228;2022-11-20T18:01:59;7.20;99.90
6581;DHT22;3324;50.796;7.228;2022-11-20T18:04:25;7.30;99.90
6581;DHT22;3324;50.796;7.228;2022-11-20T18:06:50;7.30;99.90